Time;durP1;ratioP1;P1;durP2;ratioP2;P2;SDS_P1;SDS_P2;PMS_P1;PMS_P2;Temp;Humidity;BMP_temperature;BMP_pressure;BME280_temperature;BME280_humidity;BME280_pressure;Samples;Min_cycle;Max_cycle;Signal;HPM_P1;HPM_P2
2022/03/22 06:29:27;;;;;;;20.20;10.90;;;4.20;99.90;;;;;;5111914;27;20104;-67
2022/03/22 06:31:53;;;;;;;24.37;12.10;;;3.90;99.90;;;;;;5109932;28;20074;-66
2022/03/22 06:34:19;;;;;;;23.50;13.27;;;3.90;99.90;;;;;;5109893;28;20077;-66
2022/03/22 06:36:44;;;;;;;22.80;11.97;;;4.00;99.90;;;;;;5110180;28;20460;-66
2022/03/22 06:39:10;;;;;;;23.33;11.57;;;4.00;99.90;;;;;;5110874;28;20023;-67
2022/03/22 06:41:35;;;;;;;22.43;12.13;;;4.10;99.90;;;;;;5110704;28;20040;-66
2022/03/22 06:44:01;;;;;;;21.17;12.70;;;4.20;99.90;;;;;;5109672;28;20050;-66
2022/03/22 06:46:27;;;;;;;26.60;12.60;;;4.20;99.90;;;;;;5110757;28;20412;-67
2022/03/22 06:48:52;;;;;;;23.63;12.93;;;4.20;99.90;;;;;;5110687;28;20480;-67
2022/03/22 06:51:19;;;;;;;20.00;11.33;;;4.20;99.90;;;;;;5110865;28;20031;-67
2022/03/22 06:53:45;;;;;;;21.95;11.43;;;4.30;99.90;;;;;;5110370;28;20020;-66
2022/03/22 06:56:10;;;;;;;21.23;12.13;;;4.30;99.90;;;;;;5110039;28;20027;-67
2022/03/22 06:58:36;;;;;;;24.80;12.33;;;4.40;99.90;;;;;;5110685;28;20106;-66
2022/03/22 07:01:02;;;;;;;22.50;11.67;;;4.50;99.90;;;;;;5109136;28;20024;-66
2022/03/22 07:03:27;;;;;;;23.10;12.70;;;4.60;99.90;;;;;;5110592;28;20395;-66
2022/03/22 07:05:53;;;;;;;24.00;12.90;;;4.70;99.90;;;;;;5109208;28;20443;-66
2022/03/22 07:08:19;;;;;;;22.67;12.48;;;4.70;99.90;;;;;;5108843;28;20024;-66
2022/03/22 07:11:47;;;;;;;29.23;12.43;;;4.80;99.50;;;;;;5110700;28;20090;-67
2022/03/22 07:13:32;;;;;;;18.95;11.82;;;4.80;99.20;;;;;;5110250;28;20035;-67
2022/03/22 07:15:58;;;;;;;23.13;12.60;;;4.90;98.90;;;;;;5111505;28;20020;-66
2022/03/22 07:18:24;;;;;;;27.00;13.27;;;5.00;98.70;;;;;;5112717;28;20032;-67
2022/03/22 07:20:49;;;;;;;22.07;12.43;;;5.10;98.60;;;;;;5111549;28;20396;-66
2022/03/22 07:23:15;;;;;;;24.80;12.63;;;5.10;98.50;;;;;;5110194;28;20028;-65
2022/03/22 07:25:40;;;;;;;21.88;12.48;;;5.20;98.30;;;;;;5110144;28;20024;-66
2022/03/22 07:28:06;;;;;;;20.17;11.97;;;5.30;98.20;;;;;;5110122;28;20031;-66
2022/03/22 07:30:32;;;;;;;22.67;13.37;;;5.30;97.90;;;;;;5111851;28;20024;-66
2022/03/22 07:32:57;;;;;;;28.77;12.27;;;5.40;97.70;;;;;;5110930;28;20028;-66
2022/03/22 07:35:24;;;;;;;23.47;13.00;;;5.50;97.50;;;;;;5110181;28;20027;-68
2022/03/22 07:37:50;;;;;;;22.27;13.63;;;5.60;97.40;;;;;;5108945;28;20043;-67
2022/03/22 07:40:16;;;;;;;27.10;12.93;;;5.70;97.20;;;;;;5098908;28;20028;-66
2022/03/22 07:42:41;;;;;;;24.73;12.38;;;5.70;97.00;;;;;;5096619;28;20078;-67
2022/03/22 07:45:09;;;;;;;25.00;12.53;;;5.80;97.10;;;;;;5096690;28;20024;-66
2022/03/22 07:47:36;;;;;;;21.23;12.23;;;5.90;96.70;;;;;;5095017;28;20061;-67
2022/03/22 07:53:01;;;;;;;25.45;13.80;;;6.10;96.40;;;;;;5096111;28;20030;-64
2022/03/22 07:55:28;;;;;;;20.38;12.23;;;6.20;95.90;;;;;;5094547;28;20020;-66
2022/03/22 07:57:55;;;;;;;21.17;12.15;;;6.30;95.80;;;;;;5094183;28;20024;-65
2022/03/22 08:00:20;;;;;;;;;;;6.40;95.70;;;;;;5096607;28;20024;-65
2022/03/22 08:03:03;;;;;;;22.27;12.15;;;6.50;95.40;;;;;;5096645;28;20245;-65
2022/03/22 08:05:30;;;;;;;22.08;12.30;;;6.70;94.90;;;;;;5094563;28;20107;-65
2022/03/22 08:07:55;;;;;;;23.40;12.13;;;6.70;94.80;;;;;;5094125;28;20059;-65
2022/03/22 08:10:22;;;;;;;23.77;13.10;;;6.80;94.90;;;;;;5095785;28;20385;-65
2022/03/22 08:12:47;;;;;;;;;;;6.90;94.80;;;;;;5096039;28;20047;-65
2022/03/22 08:15:14;;;;;;;19.83;11.18;;;7.10;94.40;;;;;;5095541;28;19904;-66
2022/03/22 08:17:40;;;;;;;22.27;12.20;;;7.20;93.80;;;;;;5094077;28;20034;-66
2022/03/22 08:20:07;;;;;;;22.40;12.48;;;7.20;93.40;;;;;;5095625;28;20036;-65
2022/03/22 08:22:50;;;;;;;21.25;11.93;;;7.30;93.20;;;;;;5095339;28;20020;-66
2022/03/22 08:25:17;;;;;;;20.38;12.65;;;7.40;93.10;;;;;;5093892;28;20028;-65
2022/03/22 08:27:44;;;;;;;21.77;12.45;;;7.40;92.90;;;;;;5095075;28;20481;-66
2022/03/22 08:30:12;;;;;;;26.88;13.30;;;7.50;93.00;;;;;;5095285;28;20499;-66
2022/03/22 08:32:39;;;;;;;24.55;13.07;;;7.60;92.80;;;;;;5096701;28;20020;-65
2022/03/22 08:35:05;;;;;;;22.60;12.93;;;7.70;92.30;;;;;;5098472;28;20024;-65
2022/03/22 08:37:30;;;;;;;25.17;11.80;;;7.90;92.20;;;;;;5097263;28;20396;-65
2022/03/22 08:39:56;;;;;;;19.27;12.10;;;8.00;91.50;;;;;;5095282;28;20028;-65
2022/03/22 08:42:21;;;;;;;20.00;12.03;;;8.00;91.10;;;;;;5093659;28;20466;-65
2022/03/22 08:44:48;;;;;;;21.23;12.10;;;8.20;90.90;;;;;;5095051;28;20485;-65
2022/03/22 08:47:13;;;;;;;19.98;12.02;;;8.30;90.40;;;;;;5093283;28;20084;-66
2022/03/22 08:49:40;;;;;;;18.10;11.27;;;8.30;90.30;;;;;;5094950;28;20024;-65
2022/03/22 08:52:06;;;;;;;;;;;8.40;90.10;;;;;;5092832;28;20492;-66
2022/03/22 08:54:32;;;;;;;19.67;11.32;;;8.60;89.40;;;;;;5095101;28;19947;-66
2022/03/22 08:56:57;;;;;;;19.80;11.23;;;8.80;88.80;;;;;;5094887;28;20076;-65
2022/03/22 08:59:23;;;;;;;23.97;12.03;;;9.10;89.10;;;;;;5094661;28;20071;-66
2022/03/22 09:01:48;;;;;;;20.83;12.67;;;9.40;85.70;;;;;;5095103;28;20029;-66
2022/03/22 09:06:58;;;;;;;21.00;11.88;;;10.00;85.40;;;;;;5094727;28;20043;-65
2022/03/22 09:09:25;;;;;;;23.83;11.73;;;11.50;79.20;;;;;;5093102;28;20024;-65
2022/03/22 09:11:51;;;;;;;18.83;12.10;;;13.60;76.70;;;;;;5096071;28;20158;-65
2022/03/22 09:14:17;;;;;;;19.00;11.45;;;15.60;66.20;;;;;;5097213;28;20052;-65
2022/03/22 09:16:42;;;;;;;22.73;12.90;;;17.50;60.40;;;;;;5098447;28;20016;-66
2022/03/22 09:19:08;;;;;;;16.15;11.60;;;19.50;55.90;;;;;;5095735;28;20042;-65
2022/03/22 09:21:35;;;;;;;18.63;12.93;;;21.60;52.60;;;;;;5096313;28;20028;-66
2022/03/22 09:24:03;;;;;;;16.55;12.13;;;22.70;48.80;;;;;;5094645;28;20028;-65
2022/03/22 09:26:32;;;;;;;16.38;12.82;;;23.60;45.90;;;;;;5094507;28;20537;-65
2022/03/22 09:28:58;;;;;;;17.65;12.10;;;24.40;44.10;;;;;;5093988;28;20469;-65
2022/03/22 09:31:24;;;;;;;15.75;11.98;;;25.10;43.20;;;;;;5092741;28;20024;-65
2022/03/22 09:33:50;;;;;;;14.65;12.05;;;25.90;42.50;;;;;;5094639;28;20392;-65
2022/03/22 09:36:16;;;;;;;18.00;12.65;;;26.40;42.20;;;;;;5092837;28;20369;-65
2022/03/22 09:38:42;;;;;;;18.33;12.40;;;26.50;42.00;;;;;;5094010;28;20031;-66
2022/03/22 09:41:09;;;;;;;16.05;12.27;;;26.70;41.00;;;;;;5094005;28;20061;-66
2022/03/22 09:43:36;;;;;;;15.00;12.00;;;26.60;41.20;;;;;;5093673;28;20063;-65
2022/03/22 09:46:06;;;;;;;16.58;12.25;;;27.10;40.30;;;;;;5094624;28;20042;-67
2022/03/22 09:48:33;;;;;;;14.85;11.98;;;27.50;40.20;;;;;;5093781;28;20554;-65
2022/03/22 09:53:43;;;;;;;17.88;12.48;;;27.60;39.00;;;;;;5094092;28;20094;-65
2022/03/22 09:56:08;;;;;;;15.90;11.07;;;27.30;39.10;;;;;;5092144;28;20031;-66
2022/03/22 09:58:34;;;;;;;18.08;11.80;;;27.10;38.90;;;;;;5093669;28;20085;-66
2022/03/22 10:00:59;;;;;;;16.08;11.55;;;27.00;40.30;;;;;;5093597;28;20030;-67
2022/03/22 10:03:25;;;;;;;15.07;12.38;;;28.50;39.00;;;;;;5093441;28;20089;-67
2022/03/22 10:06:02;;;;;;;13.10;11.75;;;29.60;37.90;;;;;;5092281;28;20031;-67
2022/03/22 10:08:28;;;;;;;14.52;12.73;;;28.90;37.80;;;;;;5093591;28;20024;-66
2022/03/22 10:11:00;;;;;;;13.95;12.32;;;28.90;38.30;;;;;;5093373;28;20027;-66
2022/03/22 10:13:27;;;;;;;16.85;13.00;;;29.00;38.00;;;;;;5093712;28;20020;-66
2022/03/22 10:16:01;;;;;;;15.68;12.43;;;25.80;39.00;;;;;;5093352;28;20020;-66
2022/03/22 10:18:27;;;;;;;18.65;12.88;;;26.50;39.20;;;;;;5093155;28;20098;-66
2022/03/22 10:21:01;;;;;;;17.98;13.00;;;25.90;39.10;;;;;;5093380;28;20481;-66
2022/03/22 10:23:27;;;;;;;22.90;12.73;;;26.60;39.40;;;;;;5092565;28;20020;-66
2022/03/22 10:26:03;;;;;;;14.57;11.30;;;24.80;39.40;;;;;;5093546;28;20540;-66
2022/03/22 10:28:28;;;;;;;15.90;12.13;;;24.40;40.90;;;;;;5093071;28;20036;-66
2022/03/22 10:30:57;;;;;;;17.85;12.10;;;25.00;40.40;;;;;;5093510;28;20036;-66
2022/03/22 10:33:23;;;;;;;20.25;13.95;;;25.60;39.50;;;;;;5093355;28;20024;-66
2022/03/22 10:35:49;;;;;;;13.80;12.35;;;25.80;39.30;;;;;;5093098;28;20031;-66
2022/03/22 10:38:15;;;;;;;13.80;12.07;;;25.80;39.40;;;;;;5092957;28;20032;-66
2022/03/22 10:40:44;;;;;;;16.67;12.70;;;25.60;39.90;;;;;;5092958;28;20515;-66
2022/03/22 10:43:20;;;;;;;17.30;12.80;;;27.10;39.20;;;;;;5093353;28;20049;-66
2022/03/22 10:45:50;;;;;;;15.98;11.23;;;26.80;39.20;;;;;;5093235;28;20020;-66
2022/03/22 10:48:23;;;;;;;14.80;12.32;;;28.10;38.80;;;;;;5093217;28;20034;-65
2022/03/22 10:50:50;;;;;;;16.55;11.35;;;27.90;38.10;;;;;;5092934;28;20024;-66
2022/03/22 10:53:18;;;;;;;17.23;11.55;;;28.90;38.50;;;;;;5091550;28;20028;-66
2022/03/22 10:55:45;;;;;;;18.98;12.65;;;30.20;37.70;;;;;;5093043;28;20056;-66
2022/03/22 10:58:18;;;;;;;15.23;11.73;;;31.10;36.60;;;;;;5093068;28;20020;-67
2022/03/22 11:00:45;;;;;;;13.38;11.98;;;32.00;36.30;;;;;;5093226;28;20511;-65
2022/03/22 11:03:14;;;;;;;15.90;12.43;;;32.70;35.60;;;;;;5092835;28;20016;-66
2022/03/22 11:05:41;;;;;;;17.80;13.15;;;32.60;36.00;;;;;;5093015;28;20044;-66
2022/03/22 11:08:07;;;;;;;13.65;11.80;;;30.90;35.40;;;;;;5092466;28;20032;-66
2022/03/22 11:10:33;;;;;;;14.70;12.18;;;28.10;37.00;;;;;;5092994;28;20391;-67
2022/03/22 11:12:59;;;;;;;15.00;12.35;;;26.10;37.80;;;;;;5091209;28;20020;-66
2022/03/22 11:15:32;;;;;;;15.25;12.40;;;24.90;39.30;;;;;;5095135;28;20024;-66
2022/03/22 11:18:00;;;;;;;15.88;12.80;;;23.40;40.10;;;;;;5096743;28;20383;-66
2022/03/22 11:20:27;;;;;;;15.73;12.23;;;21.70;41.90;;;;;;5096726;28;20115;-65
2022/03/22 11:22:55;;;;;;;20.55;13.57;;;20.20;43.60;;;;;;5097458;28;20016;-65
2022/03/22 11:25:34;;;;;;;18.83;12.80;;;19.10;44.70;;;;;;5096371;28;20027;-66
2022/03/22 11:28:12;;;;;;;17.63;13.00;;;18.10;46.20;;;;;;5094738;28;20035;-66
2022/03/22 11:30:39;;;;;;;17.65;13.13;;;17.10;47.20;;;;;;5098037;28;20020;-66
2022/03/22 11:35:55;;;;;;;21.52;13.85;;;16.60;48.70;;;;;;5096737;28;20047;-66
2022/03/22 11:38:48;;;;;;;17.95;11.82;;;16.20;48.60;;;;;;5096438;28;20039;-65
2022/03/22 11:44:14;;;;;;;19.15;12.65;;;15.30;50.30;;;;;;5098598;28;20067;-65
2022/03/22 11:46:41;;;;;;;22.23;12.43;;;15.10;50.50;;;;;;5096205;28;20024;-65
2022/03/22 11:49:21;;;;;;;16.38;11.73;;;15.10;50.60;;;;;;5095925;28;20476;-67
2022/03/22 11:51:49;;;;;;;20.73;12.68;;;15.30;50.50;;;;;;5094340;28;20028;-65
2022/03/22 11:54:14;;;;;;;20.10;12.60;;;15.30;50.80;;;;;;5094660;28;20119;-65
2022/03/22 11:56:48;;;;;;;20.58;12.85;;;15.40;50.80;;;;;;5095903;28;20156;-66
2022/03/22 11:59:18;;;;;;;21.60;12.60;;;15.50;50.60;;;;;;5095694;28;20057;-66
2022/03/22 12:02:05;;;;;;;21.33;13.23;;;15.40;50.50;;;;;;5095761;28;20019;-67
2022/03/22 12:04:52;;;;;;;20.73;12.80;;;15.50;50.80;;;;;;5095803;28;20016;-67
2022/03/22 12:07:30;;;;;;;18.77;13.13;;;15.40;50.60;;;;;;5096203;28;20440;-66
2022/03/22 12:10:10;;;;;;;22.17;13.63;;;15.50;50.50;;;;;;5096622;28;20384;-67
2022/03/22 12:12:38;;;;;;;17.80;12.65;;;15.50;50.10;;;;;;5095095;28;20027;-66
2022/03/22 12:15:06;;;;;;;18.27;11.85;;;15.50;50.60;;;;;;5096143;28;20038;-68
2022/03/22 12:17:32;;;;;;;24.88;12.95;;;15.50;50.10;;;;;;5094353;28;20385;-65
2022/03/22 12:20:00;;;;;;;81.80;49.05;;;15.50;49.90;;;;;;5094092;28;20032;-65
2022/03/22 12:22:28;;;;;;;30.75;17.05;;;15.60;50.20;;;;;;5095320;28;20473;-65
2022/03/22 12:25:00;;;;;;;21.98;12.93;;;15.50;48.90;;;;;;5095582;28;20028;-65
2022/03/22 12:27:26;;;;;;;18.50;12.32;;;15.50;49.10;;;;;;5094969;28;20456;-67
2022/03/22 12:29:54;;;;;;;16.00;11.48;;;15.50;49.40;;;;;;5094877;28;20353;-65
2022/03/22 12:32:21;;;;;;;21.50;13.00;;;15.50;49.40;;;;;;5093746;28;20118;-65
2022/03/22 12:34:48;;;;;;;19.52;13.60;;;15.60;49.70;;;;;;5095060;28;20024;-65
2022/03/22 12:37:18;;;;;;;20.42;11.95;;;15.70;51.50;;;;;;5094781;28;20055;-67
2022/03/22 12:39:45;;;;;;;18.42;12.02;;;15.70;49.20;;;;;;5094798;28;20431;-68
2022/03/22 12:42:13;;;;;;;21.90;12.75;;;15.70;49.00;;;;;;5094820;28;20479;-67
2022/03/22 12:44:39;;;;;;;24.10;12.60;;;15.70;49.00;;;;;;5093476;28;20032;-69
2022/03/22 12:47:05;;;;;;;22.05;12.15;;;15.70;48.80;;;;;;5093756;28;20089;-70
2022/03/22 12:49:39;;;;;;;20.25;11.88;;;15.80;48.60;;;;;;5095064;28;20051;-72
2022/03/22 12:52:06;;;;;;;17.98;11.65;;;15.80;48.20;;;;;;5095232;28;20077;-68
2022/03/22 12:54:36;;;;;;;18.05;11.45;;;15.80;47.80;;;;;;5095562;28;20024;-73
2022/03/22 12:57:07;;;;;;;16.17;10.18;;;15.90;47.30;;;;;;5093979;28;20396;-65
2022/03/22 12:59:34;;;;;;;15.60;9.13;;;15.90;46.80;;;;;;5094834;28;20020;-67
2022/03/22 13:02:00;;;;;;;14.48;9.38;;;15.90;45.70;;;;;;5094325;28;20028;-67
2022/03/22 13:04:29;;;;;;;15.70;9.30;;;16.00;45.80;;;;;;5093111;28;20023;-68
2022/03/22 13:07:05;;;;;;;14.30;9.27;;;16.00;45.60;;;;;;5092834;28;20024;-68
2022/03/22 13:12:17;;;;;;;15.07;9.30;;;16.30;45.30;;;;;;5095051;28;20035;-66
2022/03/22 13:15:02;;;;;;;16.02;9.25;;;16.30;45.30;;;;;;5094790;28;20027;-67
2022/03/22 13:17:29;;;;;;;14.52;8.90;;;16.40;45.30;;;;;;5092791;28;20038;-68
2022/03/22 13:19:55;;;;;;;22.63;10.07;;;16.40;44.70;;;;;;5094172;28;20121;-68
2022/03/22 13:22:25;;;;;;;;;;;16.40;45.00;;;;;;5094758;28;20099;-68
2022/03/22 13:25:02;;;;;;;16.83;9.50;;;16.50;45.20;;;;;;5093889;28;19926;-69
2022/03/22 13:27:28;;;;;;;14.98;8.48;;;16.50;44.70;;;;;;5092439;28;20057;-66
2022/03/22 13:29:54;;;;;;;18.48;9.75;;;16.50;44.70;;;;;;5094397;28;20487;-67
2022/03/22 13:32:30;;;;;;;15.85;9.25;;;16.50;45.20;;;;;;5094181;28;20028;-68
2022/03/22 13:35:04;;;;;;;19.42;9.63;;;16.50;45.30;;;;;;5094034;28;20035;-69
2022/03/22 13:37:42;;;;;;;20.42;10.48;;;16.50;45.40;;;;;;5092044;28;20078;-69
2022/03/22 13:40:09;;;;;;;15.13;10.07;;;16.60;46.50;;;;;;5094258;28;20028;-68
2022/03/22 13:42:35;;;;;;;17.90;9.57;;;16.60;46.60;;;;;;5092388;28;20053;-67
2022/03/22 13:45:04;;;;;;;15.70;9.57;;;16.80;45.60;;;;;;5094231;28;20181;-69
2022/03/22 13:47:35;;;;;;;14.65;9.25;;;16.90;45.20;;;;;;5093774;28;20372;-68
2022/03/22 13:50:16;;;;;;;17.42;10.13;;;17.20;45.50;;;;;;5093440;28;20024;-69
2022/03/22 13:52:44;;;;;;;17.02;10.15;;;17.60;45.10;;;;;;5094521;28;20357;-69
2022/03/22 13:55:21;;;;;;;16.67;10.32;;;17.50;44.70;;;;;;5093440;28;20016;-71
2022/03/22 13:57:48;;;;;;;16.90;10.75;;;17.30;45.30;;;;;;5093372;28;20028;-68
2022/03/22 14:00:14;;;;;;;18.13;11.15;;;17.00;46.20;;;;;;5093348;28;20024;-66
2022/03/22 14:02:40;;;;;;;19.45;11.60;;;16.80;46.80;;;;;;5094782;28;20021;-65
2022/03/22 14:05:05;;;;;;;18.27;11.05;;;16.80;47.00;;;;;;5094792;28;20507;-65
2022/03/22 14:07:31;;;;;;;18.25;10.90;;;16.80;46.80;;;;;;5094079;28;20091;-64
2022/03/22 14:09:57;;;;;;;23.53;11.50;;;16.80;47.50;;;;;;5093898;28;20028;-65
2022/03/22 14:12:22;;;;;;;21.20;11.93;;;16.90;47.50;;;;;;5094242;28;20801;-64
2022/03/22 14:14:48;;;;;;;22.43;12.97;;;17.00;48.30;;;;;;5094112;28;20284;-64
2022/03/22 14:17:14;;;;;;;22.33;13.20;;;17.10;48.00;;;;;;5094055;28;20266;-63
2022/03/22 14:19:40;;;;;;;20.85;11.93;;;17.20;48.80;;;;;;5093832;28;20277;-63
2022/03/22 14:22:05;;;;;;;20.48;13.05;;;17.20;49.30;;;;;;5094844;28;20020;-64
2022/03/22 14:24:32;;;;;;;19.33;12.45;;;17.20;48.30;;;;;;5095053;28;20023;-66
2022/03/22 14:26:58;;;;;;;19.60;12.48;;;17.10;50.00;;;;;;5094407;28;20389;-65
2022/03/22 14:29:24;;;;;;;19.88;13.02;;;17.30;49.10;;;;;;5093722;28;20039;-63
2022/03/22 14:31:50;;;;;;;17.77;12.43;;;17.20;47.90;;;;;;5094003;28;20032;-64
2022/03/22 14:35:46;;;;;;;22.00;13.13;;;17.20;47.90;;;;;;5093835;28;20044;-63
2022/03/22 14:37:01;;;;;;;19.13;12.25;;;17.30;47.90;;;;;;5093465;28;20047;-67
2022/03/22 14:39:30;;;;;;;17.55;11.90;;;17.20;47.40;;;;;;5093539;28;20024;-68
2022/03/22 14:41:56;;;;;;;16.85;12.40;;;17.10;47.80;;;;;;5093538;28;20074;-64
2022/03/22 14:44:22;;;;;;;18.55;13.10;;;17.10;48.00;;;;;;5093884;28;20024;-62
2022/03/22 14:46:51;;;;;;;16.30;11.38;;;17.20;48.90;;;;;;5094741;28;20025;-65
2022/03/22 14:49:18;;;;;;;18.23;12.85;;;17.20;47.70;;;;;;5094218;28;20529;-66
2022/03/22 14:54:32;;;;;;;18.60;11.32;;;17.00;47.30;;;;;;5097274;28;20089;-66
2022/03/22 14:59:41;;;;;;;16.48;11.77;;;16.90;47.70;;;;;;5097346;28;20031;-67
2022/03/22 15:02:07;;;;;;;18.60;12.43;;;16.90;47.80;;;;;;5097108;28;20021;-66
2022/03/22 15:04:32;;;;;;;15.93;11.30;;;16.90;47.80;;;;;;5097458;28;20031;-66
2022/03/22 15:06:58;;;;;;;17.00;11.32;;;16.90;47.70;;;;;;5095417;28;20031;-66
2022/03/22 15:09:26;;;;;;;16.63;11.13;;;17.00;47.10;;;;;;5097279;28;20096;-66
2022/03/22 15:11:52;;;;;;;14.93;10.25;;;16.90;46.70;;;;;;5097239;28;20032;-66
2022/03/22 15:14:18;;;;;;;16.48;10.32;;;16.90;46.80;;;;;;5096736;28;20473;-66
2022/03/22 15:16:44;;;;;;;14.82;10.45;;;16.90;47.00;;;;;;5096589;28;20031;-66
2022/03/22 15:19:09;;;;;;;16.17;10.18;;;16.90;47.20;;;;;;5096374;28;20032;-66
2022/03/22 15:21:35;;;;;;;13.60;10.48;;;16.80;47.00;;;;;;5096592;28;20024;-68
2022/03/22 15:24:01;;;;;;;18.05;10.45;;;16.80;46.10;;;;;;5096531;28;20086;-65
2022/03/22 15:26:30;;;;;;;18.17;10.02;;;16.70;46.00;;;;;;5096527;28;20016;-64
2022/03/22 15:28:55;;;;;;;14.27;9.15;;;16.70;46.40;;;;;;5096445;28;20047;-65
2022/03/22 15:31:21;;;;;;;15.77;9.73;;;16.60;46.30;;;;;;5096533;28;20028;-65
2022/03/22 15:33:48;;;;;;;17.05;8.63;;;16.60;46.50;;;;;;5097040;28;20028;-65
2022/03/22 15:36:14;;;;;;;15.85;9.70;;;16.60;46.50;;;;;;5096551;28;20028;-65
2022/03/22 15:38:40;;;;;;;13.68;9.85;;;16.60;46.00;;;;;;5096293;28;20032;-66
2022/03/22 15:41:06;;;;;;;15.32;9.63;;;16.50;46.10;;;;;;5096341;28;20502;-65
2022/03/22 15:43:32;;;;;;;19.13;9.90;;;16.50;46.20;;;;;;5096205;28;20035;-66
2022/03/22 15:45:58;;;;;;;15.05;8.80;;;16.50;46.50;;;;;;5096490;28;20381;-63
2022/03/22 15:48:24;;;;;;;17.88;8.50;;;16.40;46.30;;;;;;5095904;28;20055;-65
2022/03/22 15:50:50;;;;;;;15.23;8.80;;;16.40;46.30;;;;;;5096396;28;20411;-65
2022/03/22 15:53:16;;;;;;;;;;;16.30;45.50;;;;;;5096378;28;20431;-65
2022/03/22 15:55:42;;;;;;;12.65;9.05;;;16.30;45.90;;;;;;5095747;28;19904;-66
2022/03/22 15:58:07;;;;;;;16.83;9.95;;;16.30;46.30;;;;;;5095704;28;20451;-64
2022/03/22 16:00:34;;;;;;;18.13;10.50;;;16.30;46.90;;;;;;5095504;28;20388;-64
2022/03/22 16:02:59;;;;;;;12.30;8.90;;;16.30;46.90;;;;;;5095970;28;20023;-65
2022/03/22 16:05:26;;;;;;;16.50;9.57;;;16.20;46.80;;;;;;5095861;28;20387;-67
2022/03/22 16:07:51;;;;;;;19.80;12.57;;;16.20;46.80;;;;;;5094350;28;20445;-67
2022/03/22 16:10:18;;;;;;;21.52;13.20;;;16.10;46.20;;;;;;5095659;28;20036;-67
2022/03/22 16:12:44;;;;;;;21.58;11.52;;;16.10;46.00;;;;;;5094025;28;20051;-67
2022/03/22 16:15:10;;;;;;;13.35;8.05;;;16.00;46.20;;;;;;5095405;28;20024;-67
2022/03/22 16:17:41;;;;;;;;;;;16.00;46.00;;;;;;5095747;28;20028;-65
2022/03/22 16:20:13;;;;;;;12.88;7.28;;;16.10;45.00;;;;;;5095867;28;19908;-64
2022/03/22 16:22:40;;;;;;;12.50;6.85;;;16.10;44.50;;;;;;5095895;28;20024;-64
2022/03/22 16:25:09;;;;;;;11.82;6.80;;;16.10;44.40;;;;;;5095334;28;20024;-64
2022/03/22 16:27:39;;;;;;;13.82;7.50;;;16.20;44.30;;;;;;5096762;28;20028;-65
2022/03/22 16:30:05;;;;;;;13.50;6.85;;;16.20;44.20;;;;;;5096322;28;20103;-67
2022/03/22 16:37:59;;;;;;;10.80;7.78;;;16.20;44.10;;;;;;5096303;28;20034;-68
2022/03/22 16:40:24;;;;;;;18.60;9.25;;;16.10;44.90;;;;;;5095809;28;20020;-67
2022/03/22 16:42:50;;;;;;;10.63;7.80;;;16.10;44.70;;;;;;5095198;28;20036;-68
2022/03/22 16:45:17;;;;;;;15.23;9.10;;;16.10;44.70;;;;;;5093492;28;20742;-67
2022/03/22 16:47:43;;;;;;;16.10;8.68;;;16.00;44.80;;;;;;5095257;28;20025;-69
2022/03/22 16:50:09;;;;;;;14.25;8.45;;;16.00;44.90;;;;;;5095050;28;20035;-67
2022/03/22 16:52:37;;;;;;;16.17;9.35;;;16.00;45.10;;;;;;5095278;28;20089;-69
2022/03/22 16:55:03;;;;;;;18.38;9.23;;;16.00;45.70;;;;;;5095564;28;20020;-68
2022/03/22 16:57:29;;;;;;;14.82;10.38;;;15.90;46.30;;;;;;5095086;28;20028;-68
2022/03/22 16:59:55;;;;;;;18.40;10.35;;;15.90;46.70;;;;;;5094936;28;20396;-69
2022/03/22 17:02:20;;;;;;;14.50;9.32;;;15.90;47.10;;;;;;5094863;28;20077;-66
2022/03/22 17:04:48;;;;;;;16.50;11.40;;;15.80;47.20;;;;;;5093323;28;20016;-66
2022/03/22 17:07:14;;;;;;;16.70;10.30;;;15.80;47.20;;;;;;5092955;28;20058;-66
2022/03/22 17:09:39;;;;;;;16.90;10.20;;;15.80;47.20;;;;;;5094884;28;20106;-66
2022/03/22 17:12:05;;;;;;;16.87;10.30;;;15.70;47.30;;;;;;5093864;28;20460;-64
2022/03/22 17:14:34;;;;;;;16.20;9.98;;;15.70;47.40;;;;;;5093245;28;20335;-68
2022/03/22 17:17:00;;;;;;;19.42;10.98;;;15.60;47.70;;;;;;5094379;28;20480;-66
2022/03/22 17:19:27;;;;;;;16.73;10.23;;;15.50;47.90;;;;;;5093124;28;20381;-66
2022/03/22 17:21:54;;;;;;;15.70;10.45;;;15.50;48.20;;;;;;5094863;28;20050;-67
2022/03/22 17:24:19;;;;;;;17.15;10.43;;;15.40;49.00;;;;;;5094639;28;20020;-69
2022/03/22 17:26:45;;;;;;;17.75;10.85;;;15.30;48.40;;;;;;5094476;28;20024;-69
2022/03/22 17:29:11;;;;;;;14.60;10.05;;;15.20;48.40;;;;;;5092805;28;20520;-67
2022/03/22 17:31:37;;;;;;;19.75;11.57;;;15.20;48.70;;;;;;5094111;28;20484;-67
2022/03/22 17:34:03;;;;;;;15.50;10.65;;;15.10;48.90;;;;;;5092932;28;20123;-69
2022/03/22 17:36:29;;;;;;;17.35;10.80;;;15.10;48.90;;;;;;5094072;28;20024;-68
2022/03/22 17:39:00;;;;;;;18.25;10.32;;;15.00;49.10;;;;;;5093886;28;20027;-69
2022/03/22 17:41:30;;;;;;;15.25;10.15;;;15.00;49.30;;;;;;5094000;28;20099;-68
2022/03/22 17:43:56;;;;;;;18.27;10.55;;;14.90;49.30;;;;;;5094083;28;20018;-68
2022/03/22 17:46:23;;;;;;;15.27;10.25;;;14.80;49.70;;;;;;5094315;28;20488;-68
2022/03/22 17:48:49;;;;;;;16.48;10.20;;;14.70;49.90;;;;;;5097943;28;20020;-68
2022/03/22 17:51:15;;;;;;;19.40;10.13;;;14.70;50.00;;;;;;5098683;28;20032;-68
2022/03/22 17:53:42;;;;;;;18.17;11.27;;;14.70;50.20;;;;;;5094003;28;20394;-67
2022/03/22 17:56:09;;;;;;;15.93;10.02;;;14.60;50.30;;;;;;5093809;28;20030;-67
2022/03/22 17:58:35;;;;;;;14.18;10.07;;;14.50;50.40;;;;;;5092040;28;20028;-67
2022/03/22 18:01:01;;;;;;;18.17;10.73;;;14.50;50.60;;;;;;5094184;28;20028;-67
2022/03/22 18:03:26;;;;;;;19.20;10.60;;;14.50;50.70;;;;;;5094004;28;20383;-66
2022/03/22 18:05:53;;;;;;;18.80;10.63;;;14.40;50.80;;;;;;5094137;28;20469;-65
2022/03/22 18:08:21;;;;;;;16.83;10.65;;;14.40;50.90;;;;;;5093723;28;20389;-66
2022/03/22 18:10:48;;;;;;;16.60;10.80;;;14.30;51.20;;;;;;5092318;28;20031;-68
2022/03/22 18:13:14;;;;;;;20.25;11.35;;;14.20;51.60;;;;;;5110925;22;20048;-63
2022/03/22 18:15:40;;;;;;;20.50;10.55;;;14.10;51.80;;;;;;5074099;28;20021;-63
2022/03/22 18:18:06;;;;;;;15.02;10.20;;;14.00;52.10;;;;;;5072566;28;20501;-64
2022/03/22 18:20:33;;;;;;;20.30;11.35;;;14.00;52.50;;;;;;5074486;28;20028;-63
2022/03/22 18:22:58;;;;;;;17.33;10.68;;;13.90;53.00;;;;;;5082545;28;20023;-64
2022/03/22 18:25:25;;;;;;;15.25;10.63;;;13.90;53.20;;;;;;5097627;28;20024;-64
2022/03/22 18:27:51;;;;;;;;;;;13.80;53.50;;;;;;5094312;28;20119;-65
2022/03/22 18:30:17;;;;;;;23.48;12.13;;;13.70;53.70;;;;;;5093324;28;19939;-65
2022/03/22 18:32:43;;;;;;;20.10;10.48;;;13.70;53.90;;;;;;5094631;28;20443;-64
2022/03/22 18:35:10;;;;;;;;;;;13.60;54.20;;;;;;5093630;28;20066;-63
2022/03/22 18:37:35;;;;;;;20.15;12.27;;;13.60;54.30;;;;;;5094169;28;20011;-65
2022/03/22 18:40:05;;;;;;;17.90;11.88;;;13.50;54.40;;;;;;5094659;28;20433;-64
2022/03/22 18:42:32;;;;;;;24.25;11.57;;;13.50;54.40;;;;;;5094008;28;20020;-64
2022/03/22 18:44:58;;;;;;;19.10;11.32;;;13.40;54.50;;;;;;5094196;28;20016;-63
2022/03/22 18:47:24;;;;;;;19.23;11.95;;;13.40;54.80;;;;;;5093371;28;20066;-63
2022/03/22 18:49:50;;;;;;;16.45;11.20;;;13.20;55.00;;;;;;5093260;28;20531;-64
2022/03/22 18:52:16;;;;;;;21.13;12.77;;;13.20;55.20;;;;;;5093483;28;20115;-64
2022/03/22 18:54:42;;;;;;;21.00;12.13;;;13.20;55.70;;;;;;5093724;28;20042;-66
2022/03/22 18:57:08;;;;;;;20.75;13.00;;;13.10;56.10;;;;;;5093275;28;20035;-65
2022/03/22 18:59:34;;;;;;;23.13;12.73;;;13.00;56.60;;;;;;5093402;28;20032;-66
2022/03/22 19:02:02;;;;;;;21.67;13.80;;;13.00;57.00;;;;;;5093931;28;20024;-65
2022/03/22 19:04:28;;;;;;;21.25;13.95;;;13.00;56.80;;;;;;5092724;28;20454;-66
2022/03/22 19:06:54;;;;;;;;;;;13.00;56.80;;;;;;5092878;28;20383;-65
2022/03/22 19:09:20;;;;;;;22.08;13.52;;;13.00;56.80;;;;;;5092599;28;19910;-65
2022/03/22 19:11:46;;;;;;;25.15;14.95;;;12.90;56.40;;;;;;5094125;28;20036;-65
2022/03/22 19:14:11;;;;;;;20.05;14.57;;;13.00;57.00;;;;;;5093785;28;20036;-65
2022/03/22 19:19:21;;;;;;;22.35;14.25;;;12.90;56.70;;;;;;5093818;28;20331;-65
2022/03/22 19:21:47;;;;;;;32.90;17.85;;;12.90;56.90;;;;;;5096952;28;20054;-65
2022/03/22 19:24:12;;;;;;;31.57;19.57;;;12.90;57.00;;;;;;5095054;28;20511;-64
2022/03/22 19:26:40;;;;;;;27.17;16.67;;;12.90;57.00;;;;;;5093997;28;20020;-65
2022/03/22 19:29:06;;;;;;;26.27;16.48;;;12.90;57.30;;;;;;5093552;28;20032;-65
2022/03/22 19:34:15;;;;;;;28.27;17.73;;;12.90;57.40;;;;;;5093494;28;20096;-66
2022/03/22 19:36:42;;;;;;;28.57;18.13;;;12.80;57.80;;;;;;5096331;28;20059;-65